createdAt,value
2023-05-15T00:00:44.238Z,99000.06
2023-05-15T00:01:46.480Z,99003.94
2023-05-15T00:02:49.399Z,98989.16
2023-05-15T00:03:52.297Z,98997.31
2023-05-15T00:04:54.619Z,98995.16
2023-05-15T00:05:57.060Z,98991.06
2023-05-15T00:06:59.347Z,98994.34
2023-05-15T00:08:01.675Z,98989.88
2023-05-15T00:09:04.133Z,98994.94
2023-05-15T00:10:07.122Z,98989.81
2023-05-15T00:11:09.430Z,98986.47
2023-05-15T00:12:11.665Z,98979.78
2023-05-15T00:13:13.835Z,98981.56
2023-05-15T00:14:16.039Z,98977.22
2023-05-15T00:15:18.185Z,98977.00
2023-05-15T00:16:20.530Z,98978.94
2023-05-15T00:17:22.806Z,98976.78
2023-05-15T00:18:25.001Z,98981.13
2023-05-15T00:19:27.142Z,98970.88
2023-05-15T00:20:29.737Z,98969.38
2023-05-15T00:21:32.035Z,98978.38
2023-05-15T00:22:34.262Z,98977.22
2023-05-15T00:23:36.426Z,98966.13
2023-05-15T00:24:38.959Z,98981.13
2023-05-15T00:25:41.296Z,98987.38
2023-05-15T00:26:43.539Z,98974.25
2023-05-15T00:27:46.379Z,98978.44
2023-05-15T00:28:48.599Z,98981.63
2023-05-15T00:29:52.545Z,98987.56
2023-05-15T00:30:54.685Z,98983.78
2023-05-15T00:31:57.026Z,98982.94
2023-05-15T00:33:01.288Z,98976.06
2023-05-15T00:34:03.470Z,98990.38
2023-05-15T00:35:06.191Z,98986.94
2023-05-15T00:36:09.060Z,98988.44
2023-05-15T00:37:11.265Z,98982.06
2023-05-15T00:38:14.369Z,98987.69
2023-05-15T00:39:16.550Z,98988.88
2023-05-15T00:40:22.362Z,98988.69
2023-05-15T00:41:26.090Z,98985.91
2023-05-15T00:42:29.447Z,98989.00
2023-05-15T00:43:32.794Z,98982.19
2023-05-15T00:44:36.115Z,98994.38
2023-05-15T00:45:41.148Z,98994.69
2023-05-15T00:46:45.903Z,98987.06
2023-05-15T00:47:49.547Z,98993.16
2023-05-15T00:48:53.648Z,99000.69
2023-05-15T00:49:57.036Z,98988.19
2023-05-15T00:51:00.547Z,98990.66
2023-05-15T00:52:03.753Z,98983.53
2023-05-15T00:53:06.153Z,98978.34
2023-05-15T00:54:09.147Z,98989.59
2023-05-15T00:55:11.398Z,98984.09
2023-05-15T00:56:15.273Z,98987.31
2023-05-15T00:57:18.820Z,98978.56
2023-05-15T00:58:21.410Z,98981.66
2023-05-15T00:59:28.350Z,98983.34
2023-05-15T01:00:32.905Z,98980.66
2023-05-15T01:01:35.506Z,98979.19
2023-05-15T01:02:38.894Z,98986.06
2023-05-15T01:03:46.120Z,98988.09
2023-05-15T01:04:49.032Z,98979.31
2023-05-15T01:05:51.460Z,98987.66
2023-05-15T01:06:54.100Z,98993.44
2023-05-15T01:08:06.830Z,98996.31
2023-05-15T01:09:10.270Z,98997.19
2023-05-15T01:10:13.373Z,98988.56
2023-05-15T01:11:17.078Z,98998.56
2023-05-15T01:12:23.627Z,98992.19
2023-05-15T01:13:25.902Z,98994.06
2023-05-15T01:14:28.227Z,98997.06
2023-05-15T01:15:30.588Z,98991.03
2023-05-15T01:16:33.865Z,98997.88
2023-05-15T01:17:37.698Z,98998.19
2023-05-15T01:18:40.254Z,98993.81
2023-05-15T01:19:43.414Z,98999.75
2023-05-15T01:21:05.372Z,99002.38
2023-05-15T01:22:51.370Z,99002.63
2023-05-15T01:24:04.133Z,98997.31
2023-05-15T01:25:54.023Z,99005.81
2023-05-15T01:27:08.708Z,99000.44
2023-05-15T01:28:17.981Z,98992.84
2023-05-15T01:29:24.604Z,98992.69
2023-05-15T01:30:34.386Z,98993.50
2023-05-15T01:31:38.638Z,98995.19
2023-05-15T01:32:52.708Z,98987.88
2023-05-15T01:33:59.105Z,98991.81
2023-05-15T01:35:14.220Z,98985.09
2023-05-15T01:36:38.471Z,99003.44
2023-05-15T01:37:49.997Z,98988.44
2023-05-15T01:39:00.779Z,98991.69
2023-05-15T01:40:07.467Z,98992.69
2023-05-15T01:41:12.373Z,98986.75
2023-05-15T01:42:19.258Z,98986.38
2023-05-15T01:43:24.289Z,98984.91
2023-05-15T01:44:30.283Z,98991.19
2023-05-15T01:45:33.929Z,98988.75
2023-05-15T01:46:39.412Z,98987.25
2023-05-15T01:47:44.951Z,98990.38
2023-05-15T01:48:49.797Z,98981.44
2023-05-15T01:49:55.435Z,98990.19
2023-05-15T01:51:03.645Z,98990.25
2023-05-15T01:52:26.420Z,98985.81
2023-05-15T01:53:31.911Z,98982.00
2023-05-15T01:54:35.732Z,98979.88
2023-05-15T01:55:39.070Z,98978.88
2023-05-15T01:56:45.071Z,98971.06
2023-05-15T01:57:48.999Z,98985.88
2023-05-15T01:58:52.615Z,98983.19
2023-05-15T01:59:55.880Z,98981.38
2023-05-15T02:02:11.099Z,98985.03
2023-05-15T02:03:14.241Z,98979.81
2023-05-15T02:04:17.815Z,98972.06
2023-05-15T02:05:20.588Z,98978.09
2023-05-15T02:06:24.006Z,98977.81
2023-05-15T02:07:29.000Z,98984.13
2023-05-15T02:08:32.701Z,98971.69
2023-05-15T02:09:35.170Z,98981.44
2023-05-15T02:10:38.803Z,98976.44
2023-05-15T02:11:42.322Z,98978.06
2023-05-15T02:12:45.075Z,98978.72
2023-05-15T02:13:48.195Z,98973.41
2023-05-15T02:14:51.431Z,98980.13
2023-05-15T02:15:54.737Z,98981.50
2023-05-15T02:16:57.235Z,98978.38
2023-05-15T02:17:59.578Z,98971.44
2023-05-15T02:19:02.023Z,98982.44
2023-05-15T02:20:05.965Z,98973.28
2023-05-15T02:21:08.309Z,98978.09
2023-05-15T02:22:11.341Z,98967.84
2023-05-15T02:23:13.583Z,98978.75
2023-05-15T02:24:15.759Z,98978.97
2023-05-15T02:25:18.763Z,98971.09
2023-05-15T02:26:26.897Z,98970.63
2023-05-15T02:27:38.656Z,98968.31
2023-05-15T02:28:54.754Z,98964.63
2023-05-15T02:30:29.398Z,98962.28
2023-05-15T02:31:52.820Z,98959.88
2023-05-15T02:33:23.615Z,98967.13
2023-05-15T02:34:42.443Z,98970.81
2023-05-15T02:36:05.154Z,98971.72
2023-05-15T02:37:13.551Z,98974.25
2023-05-15T02:38:23.005Z,98971.38
2023-05-15T02:39:26.967Z,98971.78
2023-05-15T02:40:31.240Z,98974.03
2023-05-15T02:41:36.729Z,98958.97
2023-05-15T02:42:40.687Z,98961.97
2023-05-15T02:43:44.336Z,98967.38
2023-05-15T02:44:46.878Z,98973.03
2023-05-15T02:45:49.524Z,98971.56
2023-05-15T02:46:54.560Z,98959.38
2023-05-15T02:47:57.423Z,98959.16
2023-05-15T02:49:02.139Z,98969.00
2023-05-15T02:50:04.982Z,98966.00
2023-05-15T02:51:08.618Z,98971.06
2023-05-15T02:52:10.917Z,98975.31
2023-05-15T02:53:14.513Z,98972.22
2023-05-15T02:54:16.862Z,98969.59
2023-05-15T02:55:19.041Z,98962.69
2023-05-15T02:56:22.150Z,98968.94
2023-05-15T02:57:24.368Z,98973.28
2023-05-15T02:58:26.705Z,98976.19
2023-05-15T02:59:28.906Z,98968.44
2023-05-15T03:00:31.187Z,98976.38
2023-05-15T03:01:33.470Z,98975.75
2023-05-15T03:02:36.027Z,98968.81
2023-05-15T03:03:38.218Z,98973.34
2023-05-15T03:04:40.737Z,98976.53
2023-05-15T03:05:43.286Z,98980.84
2023-05-15T03:06:45.597Z,98979.28
2023-05-15T03:07:47.741Z,98977.38
2023-05-15T03:08:49.982Z,98980.84
2023-05-15T03:09:52.180Z,98980.91
2023-05-15T03:10:54.642Z,98976.66
2023-05-15T03:11:56.967Z,98976.31
2023-05-15T03:12:59.396Z,98975.13
2023-05-15T03:14:01.711Z,98974.94
2023-05-15T03:15:04.844Z,98970.00
2023-05-15T03:16:07.312Z,98980.72
2023-05-15T03:17:10.547Z,98968.44
2023-05-15T03:18:12.850Z,98974.59
2023-05-15T03:19:15.394Z,98984.81
2023-05-15T03:20:17.866Z,98979.50
2023-05-15T03:21:20.267Z,98979.31
2023-05-15T03:22:22.509Z,98974.78
2023-05-15T03:23:24.715Z,98976.63
2023-05-15T03:24:26.940Z,98972.31
2023-05-15T03:25:29.221Z,98975.72
2023-05-15T03:26:31.505Z,98982.13
2023-05-15T03:27:33.848Z,98975.13
2023-05-15T03:28:36.343Z,98975.31
2023-05-15T03:29:38.879Z,98980.63
2023-05-15T03:30:44.266Z,98980.00
2023-05-15T03:31:46.603Z,98979.91
2023-05-15T03:32:48.867Z,98977.38
2023-05-15T03:33:51.605Z,98981.56
2023-05-15T03:34:53.811Z,98983.25
2023-05-15T03:35:56.018Z,98979.44
2023-05-15T03:36:58.289Z,98974.91
2023-05-15T03:38:01.267Z,98979.28
2023-05-15T03:39:03.514Z,98977.66
2023-05-15T03:40:07.328Z,98980.91
2023-05-15T03:41:10.235Z,98985.41
2023-05-15T03:42:12.429Z,98986.47
2023-05-15T03:43:14.585Z,98977.81
2023-05-15T03:44:16.764Z,98984.63
2023-05-15T03:45:19.758Z,98976.59
2023-05-15T03:46:23.054Z,98985.69
2023-05-15T03:47:25.692Z,98983.84
2023-05-15T03:48:28.372Z,98975.03
2023-05-15T03:49:31.601Z,98983.13
2023-05-15T03:50:33.731Z,98977.38
2023-05-15T03:51:35.951Z,98993.53
2023-05-15T03:52:39.595Z,98984.50
2023-05-15T03:53:42.925Z,98984.56
2023-05-15T03:54:45.306Z,98980.50
2023-05-15T03:55:47.564Z,98985.81
2023-05-15T03:56:49.763Z,98982.53
2023-05-15T03:57:52.193Z,98985.88
2023-05-15T03:58:54.380Z,98980.81
2023-05-15T03:59:56.738Z,98985.38
2023-05-15T04:00:58.959Z,98982.94
2023-05-15T04:02:04.731Z,98980.13
2023-05-15T04:03:08.188Z,98982.81
2023-05-15T04:04:10.573Z,98987.13
2023-05-15T04:05:12.767Z,98981.59
2023-05-15T04:06:14.942Z,98978.41
2023-05-15T04:07:17.990Z,98979.19
2023-05-15T04:08:20.395Z,98980.81
2023-05-15T04:09:22.658Z,98982.59
2023-05-15T04:10:25.212Z,98978.91
2023-05-15T04:11:28.625Z,98981.13
2023-05-15T04:12:33.808Z,98975.88
2023-05-15T04:13:36.005Z,98979.66
2023-05-15T04:14:38.218Z,98982.47
2023-05-15T04:15:40.749Z,98963.00
2023-05-15T04:16:42.977Z,98953.59
2023-05-15T04:17:46.867Z,98965.63
2023-05-15T04:18:49.269Z,98951.00
2023-05-15T04:19:51.552Z,98944.75
2023-05-15T04:20:53.739Z,98945.00
2023-05-15T04:21:55.984Z,98947.03
2023-05-15T04:22:58.181Z,98936.56
2023-05-15T04:24:00.349Z,98945.69
2023-05-15T04:25:02.639Z,98944.81
2023-05-15T04:26:04.876Z,98952.53
2023-05-15T04:27:07.031Z,98944.78
2023-05-15T04:28:09.414Z,98945.97
2023-05-15T04:29:11.822Z,98951.72
2023-05-15T04:30:14.017Z,98946.34
2023-05-15T04:31:16.160Z,98941.38
2023-05-15T04:32:18.287Z,98948.69
2023-05-15T04:33:20.794Z,98957.34
2023-05-15T04:34:23.051Z,98954.56
2023-05-15T04:35:25.388Z,98959.06
2023-05-15T04:36:28.144Z,98957.66
2023-05-15T04:37:30.283Z,98950.94
2023-05-15T04:38:32.515Z,98946.19
2023-05-15T04:39:34.706Z,98942.38
2023-05-15T04:40:36.874Z,98943.59
2023-05-15T04:41:39.123Z,98953.84
2023-05-15T04:42:41.301Z,98949.69
2023-05-15T04:43:43.508Z,98954.91
2023-05-15T04:44:45.739Z,98957.34
2023-05-15T04:45:48.238Z,98960.38
2023-05-15T04:46:50.491Z,98959.22
2023-05-15T04:47:52.749Z,98960.19
2023-05-15T04:48:55.028Z,98961.22
2023-05-15T04:49:57.219Z,98961.03
2023-05-15T04:50:59.456Z,98958.03
2023-05-15T04:52:01.620Z,98962.34
2023-05-15T04:53:03.819Z,98959.34
2023-05-15T04:54:06.785Z,98964.06
2023-05-15T04:55:09.923Z,98957.84
2023-05-15T04:56:12.286Z,98960.28
2023-05-15T04:57:14.520Z,98950.88
2023-05-15T04:58:17.241Z,98950.56
2023-05-15T04:59:19.407Z,98948.03
2023-05-15T05:00:21.833Z,98948.63
2023-05-15T05:01:24.039Z,98950.66
2023-05-15T05:02:26.336Z,98956.56
2023-05-15T05:03:29.257Z,98958.38
2023-05-15T05:04:31.485Z,98961.13
2023-05-15T05:05:33.634Z,98964.69
2023-05-15T05:06:36.178Z,98964.38
2023-05-15T05:07:38.411Z,98963.78
2023-05-15T05:08:40.751Z,98968.25
2023-05-15T05:09:42.970Z,98962.59
2023-05-15T05:10:45.638Z,98972.19
2023-05-15T05:11:48.086Z,98966.38
2023-05-15T05:12:50.475Z,98968.22
2023-05-15T05:13:52.800Z,98971.66
2023-05-15T05:14:56.313Z,98971.66
2023-05-15T05:15:58.601Z,98957.41
2023-05-15T05:17:00.955Z,98953.53
2023-05-15T05:18:03.154Z,98959.16
2023-05-15T05:19:06.040Z,98954.53
2023-05-15T05:20:12.915Z,98958.69
2023-05-15T05:21:15.559Z,98951.00
2023-05-15T05:22:17.771Z,98958.63
2023-05-15T05:23:19.946Z,98945.13
2023-05-15T05:24:22.146Z,98959.84
2023-05-15T05:25:24.676Z,98953.22
2023-05-15T05:26:27.155Z,98953.47
2023-05-15T05:27:29.683Z,98957.25
2023-05-15T05:28:31.875Z,98947.00
2023-05-15T05:29:34.127Z,98947.41
2023-05-15T05:30:36.307Z,98957.34
2023-05-15T05:31:38.529Z,98950.16
2023-05-15T05:32:41.060Z,98954.41
2023-05-15T05:33:43.277Z,98954.22
2023-05-15T05:34:45.449Z,98960.88
2023-05-15T05:35:47.641Z,98959.84
2023-05-15T05:36:50.199Z,98954.63
2023-05-15T05:37:52.624Z,98960.59
2023-05-15T05:38:54.796Z,98959.34
2023-05-15T05:39:56.970Z,98963.38
2023-05-15T05:41:01.206Z,98954.53
2023-05-15T05:42:03.477Z,98960.94
2023-05-15T05:43:06.355Z,98954.31
2023-05-15T05:44:08.617Z,98952.19
2023-05-15T05:45:11.375Z,98959.94
2023-05-15T05:46:13.590Z,98958.06
2023-05-15T05:47:15.904Z,98960.66
2023-05-15T05:48:18.282Z,98955.47
2023-05-15T05:49:20.521Z,98954.81
2023-05-15T05:50:23.552Z,98955.56
2023-05-15T05:51:25.794Z,98953.25
2023-05-15T05:52:29.281Z,98960.16
2023-05-15T05:53:31.464Z,98958.06
2023-05-15T05:54:33.865Z,98958.56
2023-05-15T05:55:36.056Z,98953.78
2023-05-15T05:56:38.255Z,98953.34
2023-05-15T05:57:42.127Z,98951.16
2023-05-15T05:58:44.398Z,98958.63
2023-05-15T05:59:46.581Z,98956.69
2023-05-15T06:00:48.775Z,98955.78
2023-05-15T06:01:51.179Z,98956.50
2023-05-15T06:02:59.933Z,98952.50
2023-05-15T06:04:02.340Z,98952.53
2023-05-15T06:05:06.073Z,98957.56
2023-05-15T06:06:08.262Z,98956.38
2023-05-15T06:07:10.800Z,98952.78
2023-05-15T06:08:13.009Z,98960.38
2023-05-15T06:09:15.317Z,98962.88
2023-05-15T06:10:17.486Z,98962.06
2023-05-15T06:11:19.627Z,98945.75
2023-05-15T06:12:23.116Z,98958.03
2023-05-15T06:13:25.456Z,98951.34
2023-05-15T06:14:27.666Z,98954.09
2023-05-15T06:15:29.867Z,98955.31
2023-05-15T06:16:32.125Z,98948.38
2023-05-15T06:17:34.350Z,98958.91
2023-05-15T06:18:36.790Z,98957.38
2023-05-15T06:19:39.074Z,98957.38
2023-05-15T06:20:42.794Z,98962.63
2023-05-15T06:21:45.070Z,98967.25
2023-05-15T06:22:47.244Z,98977.06
2023-05-15T06:23:49.411Z,98975.34
2023-05-15T06:24:51.543Z,98975.75
2023-05-15T06:25:53.801Z,98973.06
2023-05-15T06:26:56.435Z,98973.34
2023-05-15T06:27:58.651Z,98964.25
2023-05-15T06:29:00.858Z,98959.72
2023-05-15T06:30:03.191Z,98951.22
2023-05-15T06:31:07.740Z,98963.28
2023-05-15T06:32:09.977Z,98958.22
2023-05-15T06:33:12.168Z,98950.47
2023-05-15T06:34:14.577Z,98950.81
2023-05-15T06:35:16.844Z,98961.44
2023-05-15T06:36:19.061Z,98957.13
2023-05-15T06:37:21.380Z,98966.81
2023-05-15T06:38:23.518Z,98965.06
2023-05-15T06:39:25.787Z,98977.59
2023-05-15T06:40:28.264Z,98972.38
2023-05-15T06:41:30.699Z,98964.03
2023-05-15T06:42:33.148Z,98964.34
2023-05-15T06:43:36.470Z,98964.97
2023-05-15T06:44:39.473Z,98970.28
2023-05-15T06:45:41.671Z,98965.50
2023-05-15T06:46:43.950Z,98971.19
2023-05-15T06:47:46.255Z,98978.03
2023-05-15T06:48:48.630Z,98982.19
2023-05-15T06:49:50.848Z,98984.47
2023-05-15T06:50:53.054Z,98987.88
2023-05-15T06:51:55.498Z,98986.00
2023-05-15T06:52:58.303Z,98987.66
2023-05-15T06:54:00.675Z,98982.28
2023-05-15T06:55:02.887Z,98993.47
2023-05-15T06:56:05.097Z,98993.28
2023-05-15T06:57:07.432Z,99001.53
2023-05-15T06:58:09.856Z,98986.88
2023-05-15T06:59:12.199Z,98987.31
2023-05-15T07:00:14.903Z,98987.63
2023-05-15T07:01:17.192Z,98987.59
2023-05-15T07:02:19.647Z,98980.06
2023-05-15T07:03:21.906Z,98997.53
2023-05-15T07:04:24.276Z,98994.69
2023-05-15T07:05:26.731Z,98995.13
2023-05-15T07:06:29.202Z,98984.53
2023-05-15T07:07:31.517Z,98999.69
2023-05-15T07:08:33.714Z,98990.19
2023-05-15T07:09:35.986Z,98983.97
2023-05-15T07:10:38.233Z,98991.53
2023-05-15T07:11:42.084Z,98975.47
2023-05-15T07:12:44.355Z,98985.72
2023-05-15T07:13:46.555Z,98983.91
2023-05-15T07:14:48.752Z,98976.75
2023-05-15T07:15:51.001Z,98983.94
2023-05-15T07:16:53.238Z,98982.47
2023-05-15T07:17:55.584Z,98983.56
2023-05-15T07:18:58.035Z,98982.94
2023-05-15T07:20:00.418Z,98981.38
2023-05-15T07:21:02.673Z,98980.16
2023-05-15T07:22:05.072Z,98978.91
2023-05-15T07:23:07.258Z,98984.28
2023-05-15T07:24:09.496Z,98973.66
2023-05-15T07:25:11.731Z,98985.59
2023-05-15T07:26:20.066Z,98975.47
2023-05-15T07:27:30.420Z,98978.75
2023-05-15T07:28:32.593Z,98979.69
2023-05-15T07:29:34.752Z,98988.25
2023-05-15T07:30:37.071Z,98981.72
2023-05-15T07:31:40.334Z,98984.66
2023-05-15T07:32:42.758Z,98987.28
2023-05-15T07:33:44.949Z,98977.59
2023-05-15T07:34:47.182Z,98982.25
2023-05-15T07:35:50.934Z,98978.31
2023-05-15T07:36:53.137Z,98979.50
2023-05-15T07:37:55.601Z,98988.09
2023-05-15T07:38:58.485Z,98973.22
2023-05-15T07:40:01.174Z,98986.19
2023-05-15T07:41:03.371Z,98980.94
2023-05-15T07:42:05.799Z,98981.53
2023-05-15T07:43:08.739Z,98994.06
2023-05-15T07:44:11.094Z,98992.13
2023-05-15T07:45:13.372Z,98979.28
2023-05-15T07:46:15.707Z,98986.91
2023-05-15T07:47:17.908Z,98984.28
2023-05-15T07:48:20.320Z,98981.03
2023-05-15T07:49:22.526Z,98985.94
2023-05-15T07:50:24.838Z,98978.75
2023-05-15T07:51:27.041Z,98983.56
2023-05-15T07:52:29.238Z,98979.22
2023-05-15T07:53:33.152Z,98980.16
2023-05-15T07:54:35.744Z,98978.19
2023-05-15T07:55:38.114Z,98979.69
2023-05-15T07:56:40.517Z,98974.78
2023-05-15T07:57:42.744Z,98980.88
2023-05-15T07:58:45.087Z,98977.38
2023-05-15T07:59:47.306Z,98975.22
2023-05-15T08:00:49.525Z,98980.91
2023-05-15T08:01:51.778Z,98978.34
2023-05-15T08:02:54.113Z,98982.59
2023-05-15T08:03:58.160Z,98987.25
2023-05-15T08:05:00.687Z,98976.69
2023-05-15T08:06:03.259Z,98976.19
2023-05-15T08:07:06.890Z,98970.34
2023-05-15T08:08:09.110Z,98973.59
2023-05-15T08:09:12.700Z,98975.09
2023-05-15T08:10:14.917Z,98966.88
2023-05-15T08:11:18.401Z,98967.59
2023-05-15T08:12:21.943Z,98975.94
2023-05-15T08:13:24.504Z,98968.41
2023-05-15T08:14:26.780Z,98973.31
2023-05-15T08:15:29.357Z,98977.09
2023-05-15T08:16:31.636Z,98975.84
2023-05-15T08:17:34.019Z,98971.22
2023-05-15T08:18:37.604Z,98976.78
2023-05-15T08:19:40.902Z,98973.63
2023-05-15T08:20:43.520Z,98970.34
2023-05-15T08:21:46.008Z,98970.94
2023-05-15T08:22:48.193Z,98971.03
2023-05-15T08:23:51.458Z,98970.97
2023-05-15T08:24:54.083Z,98983.91
2023-05-15T08:25:56.387Z,98972.88
2023-05-15T08:26:58.589Z,98974.50
2023-05-15T08:28:02.324Z,98972.41
2023-05-15T08:29:04.940Z,98968.19
2023-05-15T08:30:09.222Z,98974.03
2023-05-15T08:31:11.736Z,98972.09
2023-05-15T08:32:14.094Z,98963.78
2023-05-15T08:33:16.413Z,98971.84
2023-05-15T08:34:19.029Z,98965.03
2023-05-15T08:35:21.350Z,98968.84
2023-05-15T08:36:23.898Z,98964.97
2023-05-15T08:37:26.975Z,98959.31
2023-05-15T08:38:29.257Z,98957.50
2023-05-15T08:39:31.615Z,98963.31
2023-05-15T08:40:39.106Z,98959.16
2023-05-15T08:42:05.353Z,98966.13
2023-05-15T08:43:17.982Z,98963.28
2023-05-15T08:44:22.397Z,98964.81
2023-05-15T08:45:26.007Z,98962.13
2023-05-15T08:46:28.716Z,98966.31
2023-05-15T08:47:34.490Z,98961.78
2023-05-15T08:48:41.704Z,98962.84
2023-05-15T08:50:04.070Z,98952.47
2023-05-15T08:51:10.285Z,98956.59
2023-05-15T08:52:12.703Z,98964.06
2023-05-15T08:53:15.140Z,98952.94
2023-05-15T08:54:17.785Z,98961.31
2023-05-15T08:55:20.195Z,98962.16
2023-05-15T08:56:22.543Z,98960.22
2023-05-15T08:57:25.771Z,98953.09
2023-05-15T08:58:28.918Z,98954.59
2023-05-15T08:59:33.986Z,98957.25
2023-05-15T09:00:37.441Z,98958.31
2023-05-15T09:01:40.694Z,98948.88
2023-05-15T09:02:43.518Z,98952.25
2023-05-15T09:03:47.077Z,98941.31
2023-05-15T09:04:50.181Z,98945.53
2023-05-15T09:05:53.274Z,98946.50
2023-05-15T09:06:58.991Z,98946.25
2023-05-15T09:08:04.152Z,98944.13
2023-05-15T09:09:08.493Z,98942.28
2023-05-15T09:10:11.627Z,98942.13
2023-05-15T09:11:15.194Z,98953.28
2023-05-15T09:12:17.911Z,98947.94
2023-05-15T09:13:20.427Z,98945.47
2023-05-15T09:14:22.969Z,98951.66
2023-05-15T09:15:25.847Z,98949.13
2023-05-15T09:16:28.393Z,98953.66
2023-05-15T09:17:31.712Z,98948.59
2023-05-15T09:18:33.986Z,98949.94
2023-05-15T09:19:38.676Z,98952.69
2023-05-15T09:20:41.264Z,98952.19
2023-05-15T09:21:44.864Z,98953.22
2023-05-15T09:22:47.660Z,98946.97
2023-05-15T09:23:49.966Z,98954.53
2023-05-15T09:24:53.343Z,98945.88
2023-05-15T09:25:57.308Z,98945.97
2023-05-15T09:27:05.189Z,98943.22
2023-05-15T09:28:10.547Z,98941.78
2023-05-15T09:29:18.186Z,98937.72
2023-05-15T09:30:22.961Z,98939.84
2023-05-15T09:31:27.631Z,98936.31
2023-05-15T09:32:30.118Z,98939.13
2023-05-15T09:33:37.951Z,98933.22
2023-05-15T09:34:42.916Z,98933.38
2023-05-15T09:35:46.244Z,98928.78
2023-05-15T09:36:48.880Z,98934.28
2023-05-15T09:38:00.137Z,98930.47
2023-05-15T09:39:03.091Z,98926.88
2023-05-15T09:40:11.704Z,98922.25
2023-05-15T09:41:15.016Z,98927.28
2023-05-15T09:42:17.174Z,98920.31
2023-05-15T09:43:19.638Z,98935.53
2023-05-15T09:44:26.481Z,98929.59
2023-05-15T09:45:30.651Z,98920.31
2023-05-15T09:46:36.459Z,98915.91
2023-05-15T09:47:39.014Z,98922.69
2023-05-15T09:48:43.299Z,98918.19
2023-05-15T09:49:49.319Z,98918.59
2023-05-15T09:50:52.125Z,98921.72
2023-05-15T09:51:55.135Z,98912.31
2023-05-15T09:52:59.183Z,98918.00
2023-05-15T09:54:02.048Z,98907.59
2023-05-15T09:55:06.241Z,98909.25
2023-05-15T09:56:10.938Z,98908.38
2023-05-15T09:57:13.882Z,98901.97
2023-05-15T09:58:18.783Z,98903.22
2023-05-15T09:59:24.542Z,98901.88
2023-05-15T10:00:27.112Z,98897.88
2023-05-15T10:01:29.417Z,98900.31
2023-05-15T10:02:32.526Z,98901.91
2023-05-15T10:03:35.008Z,98900.22
2023-05-15T10:04:38.836Z,98897.81
2023-05-15T10:05:43.423Z,98906.28
2023-05-15T10:06:48.470Z,98904.47
2023-05-15T10:07:54.777Z,98910.91
2023-05-15T10:08:57.730Z,98904.06
2023-05-15T10:10:02.256Z,98894.94
2023-05-15T10:11:07.178Z,98895.56
2023-05-15T10:12:09.848Z,98897.75
2023-05-15T10:13:12.511Z,98903.81
2023-05-15T10:14:17.603Z,98896.00
2023-05-15T10:15:22.517Z,98886.00
2023-05-15T10:16:25.590Z,98895.16
2023-05-15T10:17:31.932Z,98888.63
2023-05-15T10:18:38.046Z,98889.28
2023-05-15T10:19:56.783Z,98885.41
2023-05-15T10:21:04.107Z,98890.63
2023-05-15T10:22:08.353Z,98896.47
2023-05-15T10:23:14.161Z,98886.38
2023-05-15T10:24:20.406Z,98889.72
2023-05-15T10:25:41.095Z,98883.66
2023-05-15T10:26:43.931Z,98883.56
2023-05-15T10:27:47.049Z,98885.75
2023-05-15T10:28:50.885Z,98882.31
2023-05-15T10:29:54.651Z,98884.44
2023-05-15T10:31:01.739Z,98872.34
2023-05-15T10:32:04.985Z,98879.47
2023-05-15T10:33:10.628Z,98873.13
2023-05-15T10:34:13.620Z,98869.22
2023-05-15T10:35:19.488Z,98873.34
2023-05-15T10:36:22.626Z,98862.47
2023-05-15T10:37:25.807Z,98868.00
2023-05-15T10:38:29.729Z,98861.28
2023-05-15T10:39:35.153Z,98856.84
2023-05-15T10:40:39.117Z,98861.06
2023-05-15T10:41:43.005Z,98862.44
2023-05-15T10:42:48.254Z,98859.53
2023-05-15T10:43:54.422Z,98864.47
2023-05-15T10:45:00.302Z,98851.38
2023-05-15T10:46:04.977Z,98847.31
2023-05-15T10:47:08.511Z,98857.84
2023-05-15T10:48:12.619Z,98846.63
2023-05-15T10:49:15.254Z,98851.97
2023-05-15T10:50:18.315Z,98845.97
2023-05-15T10:51:31.758Z,98844.72
2023-05-15T10:52:35.807Z,98842.78
2023-05-15T10:53:38.065Z,98838.09
2023-05-15T10:54:41.020Z,98838.47
2023-05-15T10:55:46.093Z,98837.72
2023-05-15T10:56:50.592Z,98829.22
2023-05-15T10:57:55.017Z,98829.41
2023-05-15T10:58:58.339Z,98829.47
2023-05-15T11:00:02.167Z,98829.59
2023-05-15T11:01:05.096Z,98827.91
2023-05-15T11:02:29.457Z,98817.28
2023-05-15T11:03:48.837Z,98827.97
2023-05-15T11:05:03.793Z,98810.47
2023-05-15T11:06:13.805Z,98824.97
2023-05-15T11:07:18.262Z,98824.63
2023-05-15T11:08:23.317Z,98820.38
2023-05-15T11:09:36.210Z,98817.88
2023-05-15T11:10:39.698Z,98821.09
2023-05-15T11:12:00.218Z,98824.66
2023-05-15T11:13:02.686Z,98820.59
2023-05-15T11:14:05.208Z,98813.13
2023-05-15T11:15:10.929Z,98816.44
2023-05-15T11:16:14.572Z,98816.94
2023-05-15T11:17:18.002Z,98811.38
2023-05-15T11:18:20.747Z,98817.13
2023-05-15T11:19:28.572Z,98820.06
2023-05-15T11:20:53.757Z,98815.84
2023-05-15T11:22:00.649Z,98813.66
2023-05-15T11:23:03.045Z,98814.13
2023-05-15T11:24:05.901Z,98824.81
2023-05-15T11:25:10.249Z,98810.78
2023-05-15T11:26:13.852Z,98816.88
2023-05-15T11:27:25.073Z,98813.97
2023-05-15T11:28:30.766Z,98811.31
2023-05-15T11:29:35.147Z,98803.78
2023-05-15T11:30:41.459Z,98805.50
2023-05-15T11:31:43.923Z,98809.28
2023-05-15T11:33:08.554Z,98814.06
2023-05-15T11:34:11.002Z,98815.00
2023-05-15T11:35:38.957Z,98814.81
2023-05-15T11:36:43.644Z,98805.31
2023-05-15T11:37:48.370Z,98799.03
2023-05-15T11:38:50.803Z,98799.75
2023-05-15T11:39:53.458Z,98796.63
2023-05-15T11:41:02.583Z,98799.66
2023-05-15T11:42:12.120Z,98805.47
2023-05-15T11:43:28.359Z,98805.47
2023-05-15T11:44:31.966Z,98803.34
2023-05-15T11:45:38.438Z,98808.25
2023-05-15T11:46:43.411Z,98807.44
2023-05-15T11:47:45.778Z,98802.34
2023-05-15T11:48:48.219Z,98807.28
2023-05-15T11:49:50.815Z,98802.66
2023-05-15T11:50:53.931Z,98803.03
2023-05-15T11:51:56.373Z,98801.84
2023-05-15T11:53:02.054Z,98810.59
2023-05-15T11:54:06.942Z,98802.47
2023-05-15T11:55:10.753Z,98808.34
2023-05-15T11:56:21.521Z,98804.91
2023-05-15T11:57:23.893Z,98804.56
2023-05-15T11:58:26.734Z,98809.53
2023-05-15T11:59:28.994Z,98805.53
2023-05-15T12:00:31.422Z,98806.66
2023-05-15T12:01:45.660Z,98796.97
2023-05-15T12:02:47.940Z,98811.84
2023-05-15T12:03:52.199Z,98798.56
2023-05-15T12:04:55.000Z,98799.59
2023-05-15T12:06:00.013Z,98796.44
2023-05-15T12:07:03.287Z,98791.88
2023-05-15T12:08:10.391Z,98788.09
2023-05-15T12:09:17.407Z,98791.78
2023-05-15T12:10:19.941Z,98789.84
2023-05-15T12:11:23.476Z,98792.09
2023-05-15T12:12:28.458Z,98808.03
2023-05-15T12:13:32.674Z,98811.41
2023-05-15T12:14:34.916Z,98815.91
2023-05-15T12:15:42.591Z,98810.59
2023-05-15T12:16:44.868Z,98819.72
2023-05-15T12:17:47.249Z,98808.88
2023-05-15T12:18:49.688Z,98808.66
2023-05-15T12:19:52.659Z,98818.31
2023-05-15T12:20:54.893Z,98820.38
2023-05-15T12:21:57.456Z,98813.13
2023-05-15T12:22:59.706Z,98818.03
2023-05-15T12:25:07.827Z,98817.88
2023-05-15T12:26:10.381Z,98818.78
2023-05-15T12:27:13.190Z,98815.22
2023-05-15T12:28:15.917Z,98812.63
2023-05-15T12:29:18.636Z,98810.56
2023-05-15T12:30:21.171Z,98806.81
2023-05-15T12:31:23.759Z,98814.03
2023-05-15T12:32:27.526Z,98812.72
2023-05-15T12:33:29.942Z,98810.06
2023-05-15T12:34:33.159Z,98811.94
2023-05-15T12:35:43.571Z,98806.13